Portada
METAR-TAF:

METAR-TAF

Aeroports :

Vinton Veterans Memorial Airpark

Vinton, Iowa, Estats Units d'Amèrica

latitud: 42-13-07N, longitud: 092-01-33W, altitud: 258 m

Observació

L'informe es va fer fa 20 minuts, a les 16:15 UTC
Vent 4 kt del Sud
Temperatura 16°C
Humitat 51%
Pressió 1027 hPa
Visibilitat: 16.1 km
Cel clar

METAR: KVTI 221615Z AUTO 19004KT 10SM CLR 16/06 A3033 RMK AO2 T01600057

Hora: 11:35 (16:35 UTC)


TAF: manca

Observacions i pronòstics meteorològics de més de 4000 aeroports (METAR i TAF).

Les estacions disponibles són els punts grocs i vermells al mapa.

Posi el ratolí al punt desitjat per veure el nom de l'estació.

Feu clic per veure les observacions i els pronòstics meteorològics.

Per canviar el mapa: feu clic els botons verds amb una creu de color negre per apropar; al botó verd amb un guió per allunyar la imatge; o en les fletxes verdes per a mapes adjacents.


METAR-TAF: